ADDS METAR Data INFO
IDs: Format: Raw Decoded Include TAF

Data at: 1821 UTC 20 Jul 2018

METAR for:EBCI (Charleroi Arpt, --, BX)
Text:EBCI 201750Z 31003KT 230V360 CAVOK 20/12 Q1013 NOSIG
Temperature: 20.0°C ( 68°F)
Dewpoint: 12.0°C ( 54°F) [RH = 60%]
Pressure (altimeter):29.91 inches Hg (1013.0 mb)
Winds:from the NW (310 degrees) at 3 MPH (3 knots; 1.5 m/s)
Visibility:6 or more sm (10+ km)
Ceiling:ceiling and visibility are OK
Clouds:unknown

TAF for:EBCI (Charleroi Arpt, --, BX) issued at 1700 UTC 20 Jul 2018
Text:TAF EBCI 201700Z 2018/2124 34005KT 9999 FEW050CB
Forecast period:1800 UTC 20 July 2018 to 0000 UTC 22 July 2018
Forecast type:FROM: standard forecast or significant change
Winds:from the NNW (340 degrees) at 6 MPH (5 knots; 2.6 m/s)
Visibility:6 or more sm (10+ km)
Ceiling:at least 12,000 feet AGL
Clouds: few clouds at 5000 feet AGL
Text:PROB30
Forecast period:1800 UTC 20 July 2018 to 0100 UTC 21 July 2018
Forecast type:TEMPORARY: The following changes expected for less than half the time period
Winds:variable direction winds at 17 MPH (15 knots; 7.7 m/s) gusting to 29 MPH (25 knots; 12.9 m/s)
Visibility: 2.80 sm ( 4.51 km)
Clouds:missing
Weather:SHRA -TSRA (rain showers, light rain associated with thunderstorm(s))